Time;durP1;ratioP1;P1;durP2;ratioP2;P2;SDS_P1;SDS_P2;PMS_P1;PMS_P2;Temp;Humidity;BMP_temperature;BMP_pressure;BME280_temperature;BME280_humidity;BME280_pressure;Samples;Min_cycle;Max_cycle;Signal;HPM_P1;HPM_P2
2022/06/08 00:02:52;;;;;;;;;;;17.00;99.90;;;;;;8381570;28;19921;-68
2022/06/08 00:06:53;;;;;;;;;;;17.00;99.90;;;;;;8377310;28;20366;-68
2022/06/08 00:10:55;;;;;;;;;;;17.00;99.90;;;;;;8382182;28;19932;-68
2022/06/08 00:14:57;;;;;;;;;;;16.90;99.90;;;;;;8385422;28;19924;-68
2022/06/08 00:18:58;;;;;;;;;;;16.90;99.90;;;;;;8386728;28;19936;-68
2022/06/08 00:23:00;;;;;;;;;;;16.90;99.90;;;;;;8382823;28;19920;-68
2022/06/08 00:27:02;;;;;;;;;;;16.80;99.90;;;;;;8382007;28;19932;-68
2022/06/08 00:31:03;;;;;;;;;;;16.80;99.90;;;;;;8389727;28;19944;-68
2022/06/08 00:35:06;;;;;;;;;;;16.70;99.90;;;;;;8386837;28;19928;-68
2022/06/08 00:39:07;;;;;;;;;;;16.70;99.90;;;;;;8383503;28;19920;-68
2022/06/08 00:43:09;;;;;;;;;;;16.60;99.90;;;;;;8379295;28;19920;-68
2022/06/08 00:47:13;;;;;;;;;;;16.60;99.90;;;;;;8384216;28;19924;-68
2022/06/08 00:51:14;;;;;;;;;;;16.50;99.90;;;;;;8383626;28;19921;-68
2022/06/08 00:55:17;;;;;;;;;;;16.50;99.90;;;;;;8379044;28;20339;-68
2022/06/08 00:59:19;;;;;;;;;;;16.40;99.90;;;;;;8384852;28;19920;-67
2022/06/08 01:03:21;;;;;;;;;;;16.30;99.90;;;;;;8381039;28;20192;-68
2022/06/08 01:07:22;;;;;;;;;;;16.40;99.90;;;;;;8377170;28;20341;-68
2022/06/08 01:11:56;;;;;;;;;;;16.40;99.90;;;;;;8408683;28;20339;-68
2022/06/08 01:16:01;;;;;;;;;;;16.40;99.90;;;;;;8356305;28;19925;-68
2022/06/08 01:20:02;;;;;;;;;;;16.40;99.90;;;;;;8388405;28;20342;-68
2022/06/08 01:24:09;;;;;;;;;;;16.40;99.90;;;;;;8383878;28;19950;-68
2022/06/08 01:28:24;;;;;;;;;;;16.50;99.90;;;;;;8379299;28;19927;-68
2022/06/08 01:32:35;;;;;;;;;;;16.50;99.90;;;;;;8381937;28;20384;-68
2022/06/08 01:36:55;;;;;;;;;;;16.50;99.90;;;;;;8383571;28;20378;-68
2022/06/08 01:41:04;;;;;;;;;;;16.50;99.90;;;;;;8384196;28;19920;-68
2022/06/08 01:49:52;;;;;;;;;;;16.50;99.90;;;;;;8380806;28;20280;-68
2022/06/08 01:53:56;;;;;;;;;;;16.50;99.90;;;;;;8384055;28;19928;-68
2022/06/08 01:58:13;;;;;;;;;;;16.50;99.90;;;;;;8381358;28;19921;-68
2022/06/08 02:02:24;;;;;;;;;;;16.40;99.90;;;;;;8376187;28;19924;-68
2022/06/08 02:06:41;;;;;;;;;;;16.40;99.90;;;;;;8380928;28;19927;-68
2022/06/08 02:10:43;;;;;;;;;;;16.40;99.90;;;;;;8379603;28;20268;-68
2022/06/08 02:14:47;;;;;;;;;;;16.40;99.90;;;;;;8383760;28;20288;-68
2022/06/08 02:18:56;;;;;;;;;;;16.30;99.90;;;;;;8380157;28;19928;-68
2022/06/08 02:23:35;;;;;;;;;;;16.30;99.90;;;;;;8380464;28;19921;-68
2022/06/08 02:27:42;;;;;;;;;;;16.30;99.90;;;;;;8335772;28;19958;-68
2022/06/08 02:31:57;;;;;;;;;;;16.30;99.90;;;;;;8379857;28;19920;-68
2022/06/08 02:36:01;;;;;;;;;;;16.30;99.90;;;;;;8380977;28;19920;-68
2022/06/08 02:40:06;;;;;;;;;;;16.20;99.90;;;;;;8377244;28;20340;-68
2022/06/08 02:44:11;;;;;;;;;;;16.20;99.90;;;;;;8388265;28;19935;-68
2022/06/08 02:48:13;;;;;;;;;;;16.20;99.90;;;;;;8378397;28;19960;-68
2022/06/08 02:52:19;;;;;;;;;;;16.20;99.90;;;;;;8383234;28;19924;-68
2022/06/08 02:56:37;;;;;;;;;;;16.10;99.90;;;;;;8383713;28;19939;-68
2022/06/08 03:00:42;;;;;;;;;;;16.10;99.90;;;;;;8384480;28;20336;-68
2022/06/08 03:04:54;;;;;;;;;;;16.10;99.90;;;;;;8386527;28;19957;-68
2022/06/08 03:08:58;;;;;;;;;;;16.10;99.90;;;;;;8373368;28;19921;-68
2022/06/08 03:13:03;;;;;;;;;;;16.00;99.90;;;;;;8380615;28;20015;-68
2022/06/08 03:17:06;;;;;;;;;;;16.00;99.90;;;;;;8401708;28;20388;-68
2022/06/08 03:21:08;;;;;;;;;;;16.00;99.90;;;;;;8383019;28;20028;-68
2022/06/08 03:25:10;;;;;;;;;;;15.90;99.90;;;;;;8384404;28;19928;-68
2022/06/08 03:29:12;;;;;;;;;;;15.90;99.90;;;;;;8383474;28;19920;-68
2022/06/08 03:33:13;;;;;;;;;;;16.00;99.90;;;;;;8385651;28;19929;-68
2022/06/08 03:37:15;;;;;;;;;;;15.90;99.90;;;;;;8390680;28;20358;-68
2022/06/08 03:41:17;;;;;;;;;;;15.90;99.90;;;;;;8388085;28;19928;-68
2022/06/08 03:45:19;;;;;;;;;;;15.90;99.90;;;;;;8386347;28;19928;-68
2022/06/08 03:49:22;;;;;;;;;;;15.90;99.90;;;;;;8382090;28;19925;-68
2022/06/08 03:53:26;;;;;;;;;;;15.90;99.90;;;;;;8381545;28;19963;-68
2022/06/08 03:57:29;;;;;;;;;;;15.90;99.90;;;;;;8386761;28;20295;-68
2022/06/08 04:01:31;;;;;;;;;;;15.80;99.90;;;;;;8389359;28;19935;-68
2022/06/08 04:05:33;;;;;;;;;;;15.90;99.90;;;;;;8386393;28;19928;-68
2022/06/08 04:09:35;;;;;;;;;;;15.90;99.90;;;;;;8379578;28;20342;-68
2022/06/08 04:13:37;;;;;;;;;;;15.90;99.90;;;;;;8385410;28;19975;-68
2022/06/08 04:17:38;;;;;;;;;;;16.00;99.90;;;;;;8380503;28;20311;-68
2022/06/08 04:21:41;;;;;;;;;;;15.90;99.90;;;;;;8391693;28;20355;-68
2022/06/08 04:25:43;;;;;;;;;;;16.00;99.90;;;;;;8388152;28;19927;-68
2022/06/08 04:29:45;;;;;;;;;;;16.00;99.90;;;;;;8380274;28;19925;-68
2022/06/08 04:33:46;;;;;;;;;;;16.00;99.90;;;;;;8383676;28;19931;-68
2022/06/08 04:37:48;;;;;;;;;;;16.00;99.90;;;;;;8387207;28;19967;-68
2022/06/08 04:41:50;;;;;;;;;;;16.00;99.90;;;;;;8393149;28;19932;-68
2022/06/08 04:45:52;;;;;;;;;;;16.00;99.90;;;;;;8394409;28;19920;-68
2022/06/08 04:49:54;;;;;;;;;;;16.10;99.90;;;;;;8393646;28;19926;-67
2022/06/08 04:53:55;;;;;;;;;;;16.10;99.90;;;;;;8388414;28;19935;-68
2022/06/08 04:57:57;;;;;;;;;;;16.20;99.90;;;;;;8395411;28;19928;-68
2022/06/08 05:01:59;;;;;;;;;;;16.20;99.90;;;;;;8392534;28;20375;-74
2022/06/08 05:06:01;;;;;;;;;;;16.20;99.90;;;;;;8379861;28;20007;-74
2022/06/08 05:10:03;;;;;;;;;;;16.20;99.90;;;;;;8384056;28;20383;-73
2022/06/08 05:14:05;;;;;;;;;;;16.20;99.90;;;;;;8389765;28;20376;-74
2022/06/08 05:18:07;;;;;;;;;;;16.20;99.90;;;;;;8375911;28;19932;-74
2022/06/08 05:22:08;;;;;;;;;;;16.20;99.90;;;;;;8380654;28;19928;-74
2022/06/08 05:26:12;;;;;;;;;;;16.30;99.90;;;;;;8382189;28;19935;-74
2022/06/08 05:30:14;;;;;;;;;;;16.30;99.90;;;;;;8377554;28;19924;-74
2022/06/08 05:34:15;;;;;;;;;;;16.30;99.90;;;;;;8392168;28;19924;-74
2022/06/08 05:38:17;;;;;;;;;;;16.30;99.90;;;;;;8387123;28;19928;-74
2022/06/08 05:42:19;;;;;;;;;;;16.30;99.90;;;;;;8392752;28;19924;-74
2022/06/08 05:46:21;;;;;;;;;;;16.40;99.90;;;;;;8363374;28;19927;-74
2022/06/08 05:50:23;;;;;;;;;;;16.40;99.90;;;;;;8367850;28;19994;-74
2022/06/08 05:54:25;;;;;;;;;;;16.40;99.90;;;;;;8362971;28;20364;-74
2022/06/08 05:58:29;;;;;;;;;;;16.50;99.90;;;;;;8367095;28;20401;-74
2022/06/08 06:02:30;;;;;;;;;;;16.50;99.90;;;;;;8347601;28;20380;-74
2022/06/08 06:06:33;;;;;;;;;;;16.60;99.90;;;;;;8356503;28;20372;-74
2022/06/08 06:10:35;;;;;;;;;;;16.70;99.90;;;;;;8351617;28;19948;-74
2022/06/08 06:14:37;;;;;;;;;;;16.80;99.90;;;;;;8363251;28;19948;-74
2022/06/08 06:18:39;;;;;;;;;;;16.90;99.90;;;;;;8373250;28;20199;-74
2022/06/08 06:22:40;;;;;;;;;;;17.00;99.90;;;;;;8372706;28;19935;-74
2022/06/08 06:26:43;;;;;;;;;;;17.10;99.90;;;;;;8362311;28;19932;-75
2022/06/08 06:30:45;;;;;;;;;;;17.20;99.90;;;;;;8362668;28;19929;-74
2022/06/08 06:34:46;;;;;;;;;;;17.30;99.90;;;;;;8374997;28;19928;-74
2022/06/08 06:38:48;;;;;;;;;;;17.30;99.90;;;;;;8354706;28;19929;-74
2022/06/08 06:42:50;;;;;;;;;;;17.30;99.90;;;;;;8356848;28;19931;-74
2022/06/08 06:46:52;;;;;;;;;;;17.40;99.90;;;;;;8386232;28;19932;-75
2022/06/08 06:50:53;;;;;;;;;;;17.40;99.90;;;;;;8386384;28;19928;-74
2022/06/08 06:54:55;;;;;;;;;;;17.50;99.90;;;;;;8385559;28;19940;-74
2022/06/08 06:58:57;;;;;;;;;;;17.50;99.90;;;;;;8392481;28;19932;-75
2022/06/08 07:02:59;;;;;;;;;;;17.50;99.90;;;;;;8379567;28;19924;-74
2022/06/08 07:07:00;;;;;;;;;;;17.60;99.90;;;;;;8380607;28;20217;-75
2022/06/08 07:15:26;;;;;;;;;;;17.60;99.90;;;;;;8381849;28;20392;-74
2022/06/08 07:19:28;;;;;;;;;;;17.60;99.90;;;;;;8393895;28;19940;-75
2022/06/08 07:23:29;;;;;;;;;;;17.60;99.90;;;;;;8397785;28;19928;-75
2022/06/08 07:27:31;;;;;;;;;;;17.60;99.90;;;;;;8392184;28;19939;-74
2022/06/08 07:31:33;;;;;;;;;;;17.60;99.90;;;;;;8391769;28;20004;-74
2022/06/08 07:35:34;;;;;;;;;;;17.60;99.90;;;;;;8397196;28;19924;-75
2022/06/08 07:39:36;;;;;;;;;;;17.60;99.90;;;;;;8384652;28;19924;-75
2022/06/08 07:43:38;;;;;;;;;;;17.60;99.90;;;;;;8387298;28;19940;-74
2022/06/08 07:52:01;;;;;;;;;;;17.80;99.90;;;;;;8389806;28;19924;-75
2022/06/08 07:56:02;;;;;;;;;;;17.80;99.90;;;;;;8385729;28;19924;-75
2022/06/08 08:00:06;;;;;;;;;;;17.80;99.90;;;;;;8383557;28;19935;-75
2022/06/08 08:04:08;;;;;;;;;;;17.80;99.90;;;;;;8390997;28;20366;-74
2022/06/08 08:08:10;;;;;;;;;;;17.80;99.90;;;;;;8388672;28;20359;-75
2022/06/08 08:12:12;;;;;;;;;;;17.70;99.90;;;;;;8373562;28;19933;-75
2022/06/08 08:16:14;;;;;;;;;;;17.70;99.90;;;;;;8364149;28;19931;-75
2022/06/08 08:20:17;;;;;;;;;;;17.70;99.90;;;;;;8395443;28;20276;-75
2022/06/08 08:24:19;;;;;;;;;;;17.70;99.90;;;;;;8362360;28;19951;-75
2022/06/08 08:28:20;;;;;;;;;;;17.80;99.90;;;;;;8361920;28;20339;-75
2022/06/08 08:32:22;;;;;;;;;;;17.80;99.90;;;;;;8364900;28;19931;-74
2022/06/08 08:36:24;;;;;;;;;;;17.90;99.90;;;;;;8361727;28;19924;-75
2022/06/08 08:40:25;;;;;;;;;;;17.90;99.90;;;;;;8365050;28;19932;-75
2022/06/08 08:44:31;;;;;;;;;;;18.00;99.90;;;;;;8357410;28;19933;-75
2022/06/08 08:48:39;;;;;;;;;;;18.00;99.90;;;;;;8357497;28;20053;-75
2022/06/08 08:52:50;;;;;;;;;;;18.00;99.90;;;;;;8363833;28;19932;-75
2022/06/08 08:56:54;;;;;;;;;;;18.10;99.90;;;;;;8377334;28;20431;-75
2022/06/08 09:00:57;;;;;;;;;;;18.10;99.90;;;;;;8358478;28;19951;-75
2022/06/08 09:04:59;;;;;;;;;;;18.20;99.90;;;;;;8358681;28;19940;-74
2022/06/08 09:09:03;;;;;;;;;;;18.20;99.90;;;;;;8358684;28;19935;-75
2022/06/08 09:13:05;;;;;;;;;;;18.20;99.90;;;;;;8358924;28;20380;-75
2022/06/08 09:17:12;;;;;;;;;;;18.30;99.90;;;;;;8359954;28;19936;-75
2022/06/08 09:21:33;;;;;;;;;;;18.40;99.90;;;;;;8375565;28;20570;-74
2022/06/08 09:25:35;;;;;;;;;;;18.50;99.90;;;;;;8363236;28;19933;-75
2022/06/08 09:29:46;;;;;;;;;;;18.60;99.90;;;;;;8387197;28;19932;-75
2022/06/08 09:33:48;;;;;;;;;;;18.70;99.90;;;;;;8382318;28;19940;-75
2022/06/08 09:37:52;;;;;;;;;;;18.70;99.90;;;;;;8372407;28;19970;-74
2022/06/08 09:41:54;;;;;;;;;;;18.70;99.90;;;;;;8387332;28;19929;-75
2022/06/08 09:46:05;;;;;;;;;;;18.60;99.90;;;;;;8373064;28;19925;-75
2022/06/08 09:54:40;;;;;;;;;;;18.40;99.90;;;;;;8364024;28;19929;-76
2022/06/08 09:58:49;;;;;;;;;;;18.30;99.90;;;;;;8362462;28;19931;-75
2022/06/08 10:03:10;;;;;;;;;;;18.30;99.90;;;;;;8373086;28;19925;-75
2022/06/08 10:07:20;;;;;;;;;;;18.20;99.90;;;;;;8357862;28;20537;-74
2022/06/08 10:12:00;;;;;;;;;;;18.20;99.90;;;;;;8355954;28;19929;-76
2022/06/08 10:16:09;;;;;;;;;;;18.20;99.90;;;;;;8271635;28;19944;-75
2022/06/08 10:20:12;;;;;;;;;;;18.10;99.90;;;;;;8328977;28;20369;-76
2022/06/08 10:24:17;;;;;;;;;;;18.20;99.90;;;;;;8361594;28;19968;-76
2022/06/08 10:28:24;;;;;;;;;;;18.20;99.90;;;;;;8359108;28;20320;-73
2022/06/08 10:32:30;;;;;;;;;;;18.10;99.90;;;;;;8365235;28;19925;-75
2022/06/08 10:36:32;;;;;;;;;;;18.10;99.90;;;;;;8360079;28;19933;-75
2022/06/08 10:40:52;;;;;;;;;;;18.00;99.90;;;;;;8351450;28;19995;-76
2022/06/08 10:44:54;;;;;;;;;;;18.00;99.90;;;;;;8357943;28;19940;-77
2022/06/08 10:48:56;;;;;;;;;;;17.80;99.90;;;;;;8360626;28;20396;-75
2022/06/08 10:54:53;;;;;;;;;;;17.80;99.90;;;;;;8355613;28;20246;-75
2022/06/08 10:57:42;;;;;;;;;;;17.70;99.90;;;;;;8359809;28;19976;-74
2022/06/08 11:01:50;;;;;;;;;;;17.60;99.90;;;;;;8362369;28;19961;-76
2022/06/08 11:05:51;;;;;;;;;;;17.40;99.90;;;;;;8358108;28;19933;-75
2022/06/08 11:09:57;;;;;;;;;;;17.40;99.90;;;;;;8353013;28;20006;-76
2022/06/08 11:13:59;;;;;;;;;;;17.30;99.90;;;;;;8361599;28;19925;-75
2022/06/08 11:18:03;;;;;;;;;;;17.10;99.90;;;;;;8351521;28;19983;-75
2022/06/08 11:22:10;;;;;;;;;;;17.10;99.90;;;;;;8360070;28;19935;-75
2022/06/08 11:26:23;;;;;;;;;;;17.00;99.90;;;;;;8359387;28;20275;-75
2022/06/08 11:30:25;;;;;;;;;;;17.00;99.90;;;;;;8358028;28;19932;-75
2022/06/08 11:35:05;;;;;;;;;;;16.90;99.90;;;;;;8359102;28;19932;-75
2022/06/08 11:39:33;;;;;;;;;;;16.90;99.90;;;;;;8300572;28;19933;-73
2022/06/08 11:43:36;;;;;;;;;;;17.00;99.90;;;;;;8308602;28;19932;-74
2022/06/08 11:47:51;;;;;;;;;;;16.90;99.90;;;;;;8362527;28;21418;-75
2022/06/08 11:51:52;;;;;;;;;;;16.80;99.90;;;;;;8357151;28;19929;-75
2022/06/08 11:56:09;;;;;;;;;;;16.90;99.90;;;;;;8358641;28;19932;-75
2022/06/08 12:00:23;;;;;;;;;;;16.90;99.90;;;;;;8362881;28;20312;-74
2022/06/08 12:04:27;;;;;;;;;;;16.90;99.90;;;;;;8368217;28;19936;-75
2022/06/08 12:08:33;;;;;;;;;;;16.90;99.90;;;;;;8362634;28;19948;-74
2022/06/08 12:12:53;;;;;;;;;;;16.90;99.90;;;;;;8366517;28;19925;-74
2022/06/08 12:17:00;;;;;;;;;;;17.00;99.90;;;;;;8364140;28;24235;-74
2022/06/08 12:21:19;;;;;;;;;;;17.00;99.90;;;;;;8360007;28;20394;-73
2022/06/08 12:25:22;;;;;;;;;;;17.00;99.90;;;;;;8362152;28;19932;-73
2022/06/08 12:29:39;;;;;;;;;;;17.00;99.90;;;;;;8361494;28;19929;-73
2022/06/08 12:33:41;;;;;;;;;;;17.00;99.90;;;;;;8362823;28;19932;-72
2022/06/08 12:37:44;;;;;;;;;;;17.00;99.90;;;;;;8361714;28;19940;-75
2022/06/08 12:41:51;;;;;;;;;;;16.90;99.90;;;;;;8363232;28;19960;-75
2022/06/08 12:46:12;;;;;;;;;;;16.90;99.90;;;;;;8367463;28;19928;-75
2022/06/08 12:50:16;;;;;;;;;;;16.80;99.90;;;;;;8379875;28;20438;-74
2022/06/08 12:54:24;;;;;;;;;;;16.70;99.90;;;;;;8364115;28;19933;-74
2022/06/08 12:58:25;;;;;;;;;;;16.70;99.90;;;;;;8366761;28;19947;-74
2022/06/08 13:02:37;;;;;;;;;;;16.70;99.90;;;;;;8364255;28;19970;-75
2022/06/08 13:06:39;;;;;;;;;;;16.60;99.90;;;;;;8363176;28;20075;-74
2022/06/08 13:10:41;;;;;;;;;;;16.40;99.90;;;;;;8387389;27;19932;-73
2022/06/08 13:14:42;;;;;;;;;;;16.10;99.90;;;;;;8360475;28;19928;-72
2022/06/08 13:18:44;;;;;;;;;;;16.00;99.90;;;;;;8359153;28;20346;-72
2022/06/08 13:22:46;;;;;;;;;;;16.00;99.90;;;;;;8364810;28;19990;-72
2022/06/08 13:26:55;;;;;;;;;;;15.90;99.90;;;;;;8361822;28;19925;-71
2022/06/08 13:30:57;;;;;;;;;;;16.00;99.90;;;;;;8357195;28;20356;-71
2022/06/08 13:35:02;;;;;;;;;;;16.00;99.90;;;;;;8363515;28;19928;-72
2022/06/08 13:39:16;;;;;;;;;;;16.00;99.90;;;;;;8358216;28;20019;-74
2022/06/08 13:43:18;;;;;;;;;;;16.00;99.90;;;;;;8362554;28;19933;-75
2022/06/08 13:47:26;;;;;;;;;;;16.10;99.90;;;;;;8363917;28;19932;-74
2022/06/08 13:51:28;;;;;;;;;;;16.10;99.90;;;;;;8359581;28;19954;-74
2022/06/08 13:55:33;;;;;;;;;;;16.10;99.90;;;;;;8368630;28;20027;-74
2022/06/08 13:59:36;;;;;;;;;;;16.10;99.90;;;;;;8360141;28;20152;-74
2022/06/08 14:03:38;;;;;;;;;;;16.00;99.90;;;;;;8355333;28;19929;-73
2022/06/08 14:16:38;;;;;;;;;;;16.00;99.90;;;;;;8355442;28;20010;-73
2022/06/08 14:20:39;;;;;;;;;;;16.10;99.90;;;;;;8358729;28;20366;-70
2022/06/08 14:24:46;;;;;;;;;;;16.10;99.90;;;;;;8349411;28;19963;-73
2022/06/08 14:28:48;;;;;;;;;;;16.20;99.90;;;;;;8355142;28;19932;-73
2022/06/08 14:32:52;;;;;;;;;;;16.20;99.90;;;;;;8353768;28;19929;-72
2022/06/08 14:36:56;;;;;;;;;;;16.20;99.90;;;;;;8357525;28;20316;-74
2022/06/08 14:41:02;;;;;;;;;;;16.20;99.90;;;;;;8361019;28;20388;-75
2022/06/08 14:45:04;;;;;;;;;;;16.30;99.90;;;;;;8365233;28;19926;-75
2022/06/08 14:49:08;;;;;;;;;;;16.20;99.90;;;;;;8360018;28;19925;-73
2022/06/08 14:53:11;;;;;;;;;;;16.20;99.90;;;;;;8379800;28;19944;-73
2022/06/08 14:57:23;;;;;;;;;;;16.30;99.90;;;;;;8368477;28;20089;-75
2022/06/08 15:01:26;;;;;;;;;;;16.30;99.90;;;;;;8375531;28;19932;-73
2022/06/08 15:05:30;;;;;;;;;;;16.20;99.90;;;;;;8361700;28;19924;-73
2022/06/08 15:09:32;;;;;;;;;;;16.20;99.90;;;;;;8383928;28;20039;-74
2022/06/08 15:13:34;;;;;;;;;;;16.20;99.90;;;;;;8351408;28;19924;-74
2022/06/08 15:17:36;;;;;;;;;;;16.20;99.90;;;;;;8347721;28;20289;-74
2022/06/08 15:21:38;;;;;;;;;;;16.20;99.90;;;;;;8356108;28;20022;-74
2022/06/08 15:25:42;;;;;;;;;;;16.20;99.90;;;;;;8359955;28;19929;-74
2022/06/08 15:29:43;;;;;;;;;;;16.30;99.90;;;;;;8357676;28;19929;-74
2022/06/08 15:33:45;;;;;;;;;;;16.30;99.90;;;;;;8360511;28;19925;-73
2022/06/08 15:37:49;;;;;;;;;;;16.30;99.90;;;;;;8360103;28;19956;-74
2022/06/08 15:41:51;;;;;;;;;;;16.30;99.90;;;;;;8368399;28;19924;-74
2022/06/08 15:45:52;;;;;;;;;;;16.40;99.90;;;;;;8370029;28;20008;-73
2022/06/08 15:49:55;;;;;;;;;;;16.40;99.90;;;;;;8354791;28;20372;-74
2022/06/08 15:53:59;;;;;;;;;;;16.40;99.90;;;;;;8362244;28;20327;-74
2022/06/08 15:58:02;;;;;;;;;;;16.40;99.90;;;;;;8357277;28;19929;-73
2022/06/08 16:02:04;;;;;;;;;;;16.40;99.90;;;;;;8363726;28;20281;-74
2022/06/08 16:06:07;;;;;;;;;;;16.50;99.90;;;;;;8370799;28;20285;-74
2022/06/08 16:10:08;;;;;;;;;;;16.50;99.90;;;;;;8368118;28;19925;-74
2022/06/08 16:14:12;;;;;;;;;;;16.50;99.90;;;;;;8362299;28;19925;-74
2022/06/08 16:18:14;;;;;;;;;;;16.50;99.90;;;;;;8364197;28;19973;-75
2022/06/08 16:22:16;;;;;;;;;;;16.50;99.90;;;;;;8364281;28;20435;-75
2022/06/08 16:26:17;;;;;;;;;;;16.50;99.90;;;;;;8365306;28;19925;-75
2022/06/08 16:30:21;;;;;;;;;;;16.50;99.90;;;;;;8359374;28;20264;-75
2022/06/08 16:34:23;;;;;;;;;;;16.60;99.90;;;;;;8367533;28;19928;-76
2022/06/08 16:38:25;;;;;;;;;;;16.60;99.90;;;;;;8363236;28;19928;-74
2022/06/08 16:42:26;;;;;;;;;;;16.60;99.90;;;;;;8380703;28;19925;-75
2022/06/08 16:46:28;;;;;;;;;;;16.60;99.90;;;;;;8393096;27;19929;-75
2022/06/08 16:50:31;;;;;;;;;;;16.60;99.90;;;;;;8361693;28;19925;-77
2022/06/08 16:54:32;;;;;;;;;;;16.60;99.90;;;;;;8363084;28;19940;-75
2022/06/08 17:02:54;;;;;;;;;;;16.60;99.90;;;;;;8365497;28;19928;-74
2022/06/08 17:06:56;;;;;;;;;;;16.70;99.90;;;;;;8361073;28;20398;-76
2022/06/08 17:15:32;;;;;;;;;;;16.70;99.90;;;;;;8348569;28;19924;-75
2022/06/08 17:19:34;;;;;;;;;;;16.70;99.90;;;;;;8361364;28;19933;-76
2022/06/08 17:23:36;;;;;;;;;;;16.70;99.90;;;;;;8366999;28;20272;-75
2022/06/08 17:27:39;;;;;;;;;;;16.70;99.90;;;;;;8360185;28;19939;-74
2022/06/08 17:31:40;;;;;;;;;;;16.80;99.90;;;;;;8364381;28;19958;-75
2022/06/08 17:35:42;;;;;;;;;;;16.80;99.90;;;;;;8363868;28;19935;-75
2022/06/08 17:39:44;;;;;;;;;;;16.80;99.90;;;;;;8388377;28;19928;-73
2022/06/08 17:43:45;;;;;;;;;;;16.80;99.90;;;;;;8368120;28;19932;-74
2022/06/08 17:47:47;;;;;;;;;;;16.90;99.90;;;;;;8361522;28;19956;-75
2022/06/08 17:51:49;;;;;;;;;;;16.90;99.90;;;;;;8363949;28;21505;-75
2022/06/08 17:55:50;;;;;;;;;;;16.90;99.90;;;;;;8361384;28;19932;-75
2022/06/08 17:59:57;;;;;;;;;;;16.90;99.90;;;;;;8358263;28;19944;-75
2022/06/08 18:03:59;;;;;;;;;;;16.90;99.90;;;;;;8360994;28;19931;-75
2022/06/08 18:08:02;;;;;;;;;;;16.90;99.90;;;;;;8369130;28;19932;-74
2022/06/08 18:12:04;;;;;;;;;;;16.90;99.90;;;;;;8358838;28;20204;-75
2022/06/08 18:16:06;;;;;;;;;;;16.90;99.90;;;;;;8396070;28;20325;-75
2022/06/08 18:20:10;;;;;;;;;;;16.90;99.90;;;;;;8363428;28;19928;-74
2022/06/08 18:24:12;;;;;;;;;;;16.90;99.90;;;;;;8353728;28;19928;-74
2022/06/08 18:28:16;;;;;;;;;;;16.90;99.90;;;;;;8362484;28;19951;-74
2022/06/08 18:32:17;;;;;;;;;;;17.00;99.90;;;;;;8359107;28;19929;-75
2022/06/08 18:36:19;;;;;;;;;;;17.00;99.90;;;;;;8364771;28;20376;-75
2022/06/08 18:40:22;;;;;;;;;;;17.00;99.90;;;;;;8377020;28;19932;-75
2022/06/08 18:44:23;;;;;;;;;;;17.00;99.90;;;;;;8358419;28;20281;-75
2022/06/08 18:48:26;;;;;;;;;;;17.00;99.90;;;;;;8356487;28;19925;-74
2022/06/08 18:52:28;;;;;;;;;;;16.90;99.90;;;;;;8357700;28;20314;-75
2022/06/08 18:56:31;;;;;;;;;;;16.90;99.90;;;;;;8360362;28;19929;-75
2022/06/08 19:00:33;;;;;;;;;;;16.90;99.90;;;;;;8360850;28;19924;-75
2022/06/08 19:04:35;;;;;;;;;;;16.90;99.90;;;;;;8361642;28;20321;-75
2022/06/08 19:08:37;;;;;;;;;;;16.90;99.90;;;;;;8355826;28;19932;-76
2022/06/08 19:12:38;;;;;;;;;;;16.90;99.90;;;;;;8357586;28;19925;-75
2022/06/08 19:16:40;;;;;;;;;;;16.90;99.90;;;;;;8364851;28;19929;-75
2022/06/08 19:20:42;;;;;;;;;;;16.90;99.90;;;;;;8359021;28;19933;-75
2022/06/08 19:24:45;;;;;;;;;;;16.80;99.90;;;;;;8361990;28;19936;-75
2022/06/08 19:28:47;;;;;;;;;;;16.80;99.90;;;;;;8352335;28;20016;-76
2022/06/08 19:32:48;;;;;;;;;;;16.70;99.90;;;;;;8365328;28;19971;-74
2022/06/08 19:36:50;;;;;;;;;;;16.70;99.90;;;;;;8356890;28;19928;-75
2022/06/08 19:40:56;;;;;;;;;;;16.70;99.90;;;;;;8354428;28;19935;-75
2022/06/08 19:44:58;;;;;;;;;;;16.70;99.90;;;;;;8353201;28;20403;-74
2022/06/08 19:48:59;;;;;;;;;;;16.60;99.90;;;;;;8358050;28;19932;-75
2022/06/08 19:53:02;;;;;;;;;;;16.60;99.90;;;;;;8354429;28;20297;-75
2022/06/08 19:57:04;;;;;;;;;;;16.50;99.90;;;;;;8358619;28;19995;-75
2022/06/08 20:01:06;;;;;;;;;;;16.50;99.90;;;;;;8363218;28;19928;-75
2022/06/08 20:05:14;;;;;;;;;;;16.50;99.90;;;;;;8359592;28;20288;-75
2022/06/08 20:09:15;;;;;;;;;;;16.40;99.90;;;;;;8352917;28;20361;-76
2022/06/08 20:13:17;;;;;;;;;;;16.40;99.90;;;;;;8354226;28;19932;-75
2022/06/08 20:17:19;;;;;;;;;;;16.40;99.90;;;;;;8361443;28;19951;-75
2022/06/08 20:21:21;;;;;;;;;;;16.40;99.90;;;;;;8358014;28;19955;-75
2022/06/08 20:25:24;;;;;;;;;;;16.30;99.90;;;;;;8363477;28;20277;-75
2022/06/08 20:29:25;;;;;;;;;;;16.30;99.90;;;;;;8365444;28;19970;-75
2022/06/08 20:33:27;;;;;;;;;;;16.30;99.90;;;;;;8366938;28;19932;-75
2022/06/08 20:37:29;;;;;;;;;;;16.20;99.90;;;;;;8359295;28;19932;-75
2022/06/08 20:41:33;;;;;;;;;;;16.20;99.90;;;;;;8363101;28;19931;-75
2022/06/08 20:45:34;;;;;;;;;;;16.10;99.90;;;;;;8397668;27;20368;-76
2022/06/08 20:54:17;;;;;;;;;;;16.00;99.90;;;;;;8361695;28;19940;-75
2022/06/08 20:58:19;;;;;;;;;;;16.00;99.90;;;;;;8364132;28;19925;-76
2022/06/08 21:02:23;;;;;;;;;;;16.00;99.90;;;;;;8376450;28;19933;-75
2022/06/08 21:06:25;;;;;;;;;;;16.00;99.90;;;;;;8388378;28;19928;-76
2022/06/08 21:10:27;;;;;;;;;;;15.90;99.90;;;;;;8389365;28;20035;-74
2022/06/08 21:14:28;;;;;;;;;;;15.90;99.90;;;;;;8390208;28;20136;-75
2022/06/08 21:18:49;;;;;;;;;;;15.90;99.90;;;;;;8385223;28;19962;-74
2022/06/08 21:22:51;;;;;;;;;;;15.80;99.90;;;;;;8393855;28;19928;-75
2022/06/08 21:26:52;;;;;;;;;;;15.80;99.90;;;;;;8389164;28;19924;-75
2022/06/08 21:30:54;;;;;;;;;;;15.70;99.90;;;;;;8387314;28;19924;-74
2022/06/08 21:34:56;;;;;;;;;;;15.70;99.90;;;;;;8396095;28;19931;-75
2022/06/08 21:38:58;;;;;;;;;;;15.60;99.90;;;;;;8390048;28;19925;-75
2022/06/08 21:43:00;;;;;;;;;;;15.60;99.90;;;;;;8397541;28;19924;-74
2022/06/08 21:47:03;;;;;;;;;;;15.60;99.90;;;;;;8380733;28;21459;-75
2022/06/08 21:51:05;;;;;;;;;;;15.60;99.90;;;;;;8392359;28;19933;-75
2022/06/08 21:55:12;;;;;;;;;;;15.50;99.90;;;;;;8394469;28;19983;-74
2022/06/08 21:59:14;;;;;;;;;;;15.50;99.90;;;;;;8383882;28;20148;-75
2022/06/08 22:03:17;;;;;;;;;;;15.40;99.90;;;;;;8393077;28;19932;-74
2022/06/08 22:07:21;;;;;;;;;;;15.40;99.90;;;;;;8387157;28;20036;-75
2022/06/08 22:11:24;;;;;;;;;;;15.40;99.90;;;;;;8374876;28;19924;-75
2022/06/08 22:15:26;;;;;;;;;;;15.30;99.90;;;;;;8392009;28;19928;-75
2022/06/08 22:19:27;;;;;;;;;;;15.30;99.90;;;;;;8391262;28;19924;-75
2022/06/08 22:23:32;;;;;;;;;;;15.30;99.90;;;;;;8385405;28;20398;-75
2022/06/08 22:27:34;;;;;;;;;;;15.30;99.90;;;;;;8386733;28;20395;-75
2022/06/08 22:31:35;;;;;;;;;;;15.20;99.90;;;;;;8394803;28;19928;-75
2022/06/08 22:35:38;;;;;;;;;;;15.20;99.90;;;;;;8392445;28;19972;-75
2022/06/08 22:39:39;;;;;;;;;;;15.20;99.90;;;;;;8383504;28;20407;-74
2022/06/08 22:43:41;;;;;;;;;;;15.20;99.90;;;;;;8383879;28;19932;-74
2022/06/08 22:47:43;;;;;;;;;;;15.10;99.90;;;;;;8384337;28;19997;-74
2022/06/08 22:51:45;;;;;;;;;;;15.10;99.90;;;;;;8388103;28;19932;-75
2022/06/08 22:55:47;;;;;;;;;;;15.10;99.90;;;;;;8391171;28;20257;-75
2022/06/08 22:59:50;;;;;;;;;;;15.10;99.90;;;;;;8392496;28;20236;-75
2022/06/08 23:03:51;;;;;;;;;;;15.10;99.90;;;;;;8383975;28;20388;-74
2022/06/08 23:07:53;;;;;;;;;;;15.10;99.90;;;;;;8386822;28;19931;-74
2022/06/08 23:11:55;;;;;;;;;;;15.10;99.90;;;;;;8402822;28;20130;-75
2022/06/08 23:20:29;;;;;;;;;;;15.10;99.90;;;;;;8388406;28;19970;-74
2022/06/08 23:24:31;;;;;;;;;;;15.10;99.90;;;;;;8381951;28;19978;-75
2022/06/08 23:28:32;;;;;;;;;;;15.10;99.90;;;;;;8382560;28;19961;-74
2022/06/08 23:32:34;;;;;;;;;;;15.20;99.90;;;;;;8388849;28;19961;-75
2022/06/08 23:36:36;;;;;;;;;;;15.10;99.90;;;;;;8382759;28;19935;-74
2022/06/08 23:40:39;;;;;;;;;;;15.20;99.90;;;;;;8382572;28;19932;-75
2022/06/08 23:44:45;;;;;;;;;;;15.10;99.90;;;;;;8386670;28;20526;-75
2022/06/08 23:48:47;;;;;;;;;;;15.20;99.90;;;;;;8386096;28;19928;-75
2022/06/08 23:52:48;;;;;;;;;;;15.20;99.90;;;;;;8391993;28;19924;-75
2022/06/08 23:56:50;;;;;;;;;;;15.20;99.90;;;;;;8397293;28;19931;-75
